Time;durP1;ratioP1;P1;durP2;ratioP2;P2;SDS_P1;SDS_P2;PMS_P1;PMS_P2;Temp;Humidity;BMP_temperature;BMP_pressure;BME280_temperature;BME280_humidity;BME280_pressure;Samples;Min_cycle;Max_cycle;Signal;HPM_P1;HPM_P2
2021/08/10 00:01:33;;;;;;;18.15;14.02;;;;;16.60;100731.00;;;;5089067;28;20406;-73
2021/08/10 00:04:00;;;;;;;21.35;15.02;;;;;16.70;100746.00;;;;5089208;28;20100;-74
2021/08/10 00:06:26;;;;;;;18.73;13.52;;;;;16.70;100738.00;;;;5088800;28;20406;-73
2021/08/10 00:08:53;;;;;;;28.65;15.13;;;;;16.70;100743.00;;;;5087701;28;20482;-74
2021/08/10 00:11:19;;;;;;;33.03;17.48;;;;;16.70;100746.00;;;;5089316;28;20024;-71
2021/08/10 00:13:46;;;;;;;22.17;16.25;;;;;16.60;100740.00;;;;5077662;28;20861;-73
2021/08/10 00:16:12;;;;;;;20.10;15.80;;;;;16.60;100743.00;;;;5057566;28;20025;-73
2021/08/10 00:18:39;;;;;;;24.80;16.95;;;;;16.50;100724.00;;;;5055267;28;20593;-70
2021/08/10 00:21:05;;;;;;;23.50;16.90;;;;;16.40;100719.00;;;;5048012;28;20029;-73
2021/08/10 00:23:32;;;;;;;32.13;17.50;;;;;16.40;100715.00;;;;5048589;28;20545;-72
2021/08/10 00:25:59;;;;;;;24.95;16.10;;;;;16.30;100709.00;;;;5051301;28;20498;-70
2021/08/10 00:28:25;;;;;;;26.83;16.10;;;;;16.30;100718.00;;;;5034503;28;20033;-72
2021/08/10 00:30:52;;;;;;;22.92;15.82;;;;;16.20;100742.00;;;;5049494;28;20064;-74
2021/08/10 00:33:18;;;;;;;20.27;15.43;;;;;16.20;100753.00;;;;5048663;28;20029;-73
2021/08/10 00:35:45;;;;;;;21.83;16.60;;;;;16.20;100758.00;;;;5048973;28;20021;-73
2021/08/10 00:38:12;;;;;;;19.98;16.38;;;;;16.20;100762.00;;;;5049087;28;20079;-71
2021/08/10 00:40:40;;;;;;;27.20;16.52;;;;;16.20;100774.00;;;;5048641;28;20128;-73
2021/08/10 00:43:38;;;;;;;22.25;17.92;;;;;16.30;100786.00;;;;5048940;28;20029;-71
2021/08/10 00:46:07;;;;;;;32.47;18.98;;;;;16.20;100749.00;;;;5048774;28;20132;-71
2021/08/10 00:48:34;;;;;;;26.05;18.48;;;;;16.20;100756.00;;;;5049365;28;20462;-73
2021/08/10 00:51:02;;;;;;;28.33;17.27;;;;;16.20;100722.00;;;;5048401;28;20033;-72
2021/08/10 00:53:30;;;;;;;25.80;18.55;;;;;16.20;100718.00;;;;5048370;28;20025;-71
2021/08/10 00:55:56;;;;;;;23.55;17.23;;;;;16.20;100716.00;;;;5048354;28;20037;-72
2021/08/10 00:58:23;;;;;;;24.70;17.67;;;;;16.10;100710.00;;;;5048354;28;20032;-72
2021/08/10 01:00:49;;;;;;;26.10;18.27;;;;;16.10;100691.00;;;;5048338;28;20053;-73
2021/08/10 01:03:16;;;;;;;23.65;17.88;;;;;16.10;100690.00;;;;5048943;28;20021;-72
2021/08/10 01:05:48;;;;;;;20.30;17.15;;;;;16.10;100662.00;;;;5047861;28;20032;-71
2021/08/10 01:08:27;;;;;;;;;;;;;16.10;100671.00;;;;5048806;28;20070;-73
2021/08/10 01:10:53;;;;;;;28.10;18.33;;;;;16.10;100663.00;;;;5048305;28;19917;-72
2021/08/10 01:13:28;;;;;;;24.45;18.13;;;;;16.10;100662.00;;;;5047868;28;20033;-72
2021/08/10 01:16:15;;;;;;;28.90;18.52;;;;;16.10;100649.00;;;;5048349;28;20470;-72
2021/08/10 01:19:04;;;;;;;25.15;18.75;;;;;16.10;100650.00;;;;5047540;28;20029;-72
2021/08/10 01:21:38;;;;;;;26.58;19.58;;;;;16.10;100653.00;;;;5047963;28;20017;-71
2021/08/10 01:24:27;;;;;;;25.05;18.25;;;;;16.00;100665.00;;;;5048141;28;20028;-71
2021/08/10 01:27:31;;;;;;;27.88;19.33;;;;;16.00;100669.00;;;;5048444;28;20554;-73
2021/08/10 01:30:15;;;;;;;27.58;19.67;;;;;16.00;100662.00;;;;5047906;28;20065;-71
2021/08/10 01:32:46;;;;;;;27.23;18.63;;;;;16.00;100632.00;;;;5048132;28;20039;-73
2021/08/10 01:35:16;;;;;;;27.92;19.13;;;;;16.10;100629.00;;;;5047860;28;20080;-71
2021/08/10 01:37:49;;;;;;;32.75;20.20;;;;;16.00;100636.00;;;;5047512;28;20064;-70
2021/08/10 01:40:18;;;;;;;21.65;18.15;;;;;16.10;100651.00;;;;5047755;28;20422;-70
2021/08/10 01:42:45;;;;;;;25.75;17.30;;;;;16.20;100647.00;;;;5047344;28;20036;-70
2021/08/10 01:45:12;;;;;;;27.92;18.25;;;;;16.10;100652.00;;;;5048193;28;20090;-69
2021/08/10 01:47:43;;;;;;;21.90;15.98;;;;;16.10;100631.00;;;;5047605;28;20036;-71
2021/08/10 01:50:10;;;;;;;25.10;18.05;;;;;16.10;100614.00;;;;5047465;28;20945;-72
2021/08/10 01:52:38;;;;;;;24.17;18.50;;;;;16.10;100617.00;;;;5047810;28;20638;-71
2021/08/10 01:55:05;;;;;;;25.70;18.65;;;;;16.20;100656.00;;;;5047851;28;20079;-71
2021/08/10 01:57:32;;;;;;;23.15;18.48;;;;;16.30;100647.00;;;;5047199;28;20060;-69
2021/08/10 01:59:59;;;;;;;21.60;16.55;;;;;16.40;100618.00;;;;5047480;28;20033;-71
2021/08/10 02:02:26;;;;;;;19.75;16.80;;;;;16.40;100613.00;;;;5047318;28;20048;-71
2021/08/10 02:04:53;;;;;;;22.02;15.48;;;;;16.40;100630.00;;;;5047261;28;20071;-73
2021/08/10 02:07:19;;;;;;;21.85;16.55;;;;;16.40;100615.00;;;;5047449;28;20834;-72
2021/08/10 02:09:47;;;;;;;19.80;15.38;;;;;16.40;100611.00;;;;5059216;28;20021;-71
2021/08/10 02:12:15;;;;;;;25.25;16.33;;;;;16.40;100637.00;;;;5067391;28;20103;-71
2021/08/10 02:14:44;;;;;;;19.88;15.75;;;;;16.40;100655.00;;;;5066080;28;20052;-72
2021/08/10 02:17:15;;;;;;;24.17;16.08;;;;;16.40;100648.00;;;;5066155;28;20403;-70
2021/08/10 02:19:43;;;;;;;20.75;13.85;;;;;16.30;100645.00;;;;5066387;28;20035;-70
2021/08/10 02:22:12;;;;;;;23.33;16.05;;;;;16.30;100655.00;;;;5066068;28;20086;-72
2021/08/10 02:25:17;;;;;;;21.90;14.45;;;;;16.30;100659.00;;;;5065999;28;20514;-72
2021/08/10 02:27:50;;;;;;;22.67;15.20;;;;;16.20;100679.00;;;;4964595;28;20086;-73
2021/08/10 02:30:21;;;;;;;24.13;16.63;;;;;16.20;100700.00;;;;5052344;28;20044;-72
2021/08/10 02:32:49;;;;;;;24.05;17.58;;;;;16.20;100709.00;;;;5065910;28;20393;-71
2021/08/10 02:35:28;;;;;;;24.08;17.63;;;;;16.20;100703.00;;;;5066184;28;20077;-73
2021/08/10 02:38:01;;;;;;;25.17;16.38;;;;;16.20;100683.00;;;;5065629;28;20078;-71
2021/08/10 02:40:29;;;;;;;26.55;16.25;;;;;16.10;100683.00;;;;5065945;28;20035;-73
2021/08/10 02:42:58;;;;;;;21.10;17.17;;;;;16.10;100698.00;;;;5065527;28;20086;-73
2021/08/10 02:45:25;;;;;;;26.55;18.30;;;;;16.10;100705.00;;;;5065728;28;20035;-71
2021/08/10 02:47:54;;;;;;;21.58;18.23;;;;;16.20;100702.00;;;;5065350;28;20445;-71
2021/08/10 02:50:22;;;;;;;29.85;18.65;;;;;16.20;100693.00;;;;5065773;28;20103;-73
2021/08/10 02:52:49;;;;;;;25.27;17.55;;;;;16.20;100689.00;;;;5065521;28;20406;-72
2021/08/10 02:55:21;;;;;;;25.40;17.80;;;;;16.10;100676.00;;;;5065795;28;20549;-72
2021/08/10 02:58:09;;;;;;;27.83;19.58;;;;;16.20;100661.00;;;;5065546;28;20471;-71
2021/08/10 03:00:41;;;;;;;24.13;18.20;;;;;16.10;100636.00;;;;5065413;28;20035;-69
2021/08/10 03:03:17;;;;;;;22.77;18.23;;;;;16.10;100638.00;;;;5065607;28;20033;-72
2021/08/10 03:05:45;;;;;;;28.08;18.08;;;;;16.10;100652.00;;;;5065745;28;20039;-73
2021/08/10 03:08:20;;;;;;;27.35;18.95;;;;;16.10;100651.00;;;;5065409;28;20508;-70
2021/08/10 03:10:48;;;;;;;32.97;19.33;;;;;16.10;100643.00;;;;5045397;28;20025;-72
2021/08/10 03:13:18;;;;;;;25.70;18.65;;;;;16.10;100644.00;;;;4965066;28;2307977;-71
2021/08/10 03:15:46;;;;;;;25.10;18.40;;;;;16.10;100645.00;;;;5046290;28;20068;-72
2021/08/10 03:18:15;;;;;;;33.67;20.35;;;;;16.10;100633.00;;;;5046294;28;20577;-72
2021/08/10 03:20:44;;;;;;;30.58;18.85;;;;;16.10;100643.00;;;;5046378;28;20029;-70
2021/08/10 03:23:16;;;;;;;32.40;19.60;;;;;16.10;100645.00;;;;5046604;28;20056;-70
2021/08/10 03:25:44;;;;;;;24.65;18.48;;;;;16.10;100638.00;;;;5047922;28;20032;-72
2021/08/10 03:28:14;;;;;;;32.00;19.27;;;;;16.10;100637.00;;;;5050101;28;20036;-72
2021/08/10 03:30:41;;;;;;;35.78;19.77;;;;;16.10;100640.00;;;;5050392;28;20029;-70
2021/08/10 03:33:09;;;;;;;28.92;20.30;;;;;16.00;100647.00;;;;5050118;28;20040;-71
2021/08/10 03:35:37;;;;;;;31.10;18.50;;;;;16.00;100629.00;;;;5050353;28;20025;-72
2021/08/10 03:38:05;;;;;;;32.38;19.80;;;;;16.10;100626.00;;;;5049828;28;20033;-72
2021/08/10 03:40:32;;;;;;;40.30;21.77;;;;;16.10;100606.00;;;;5050010;28;20055;-70
2021/08/10 03:42:58;;;;;;;34.25;21.17;;;;;16.10;100611.00;;;;5049746;28;20400;-71
2021/08/10 03:45:26;;;;;;;37.88;22.70;;;;;16.00;100625.00;;;;5050333;28;20916;-72
2021/08/10 03:47:53;;;;;;;30.67;22.48;;;;;16.10;100632.00;;;;5050639;28;20127;-72
2021/08/10 03:50:20;;;;;;;34.38;22.10;;;;;16.10;100613.00;;;;5049692;28;20024;-70
2021/08/10 03:52:51;;;;;;;34.33;22.30;;;;;16.10;100614.00;;;;5049657;28;20368;-71
2021/08/10 03:55:17;;;;;;;40.10;23.35;;;;;16.10;100631.00;;;;5049051;28;20106;-71
2021/08/10 03:57:47;;;;;;;44.97;25.90;;;;;16.10;100635.00;;;;5049630;28;20065;-72
2021/08/10 04:00:14;;;;;;;39.78;24.17;;;;;16.20;100644.00;;;;5049788;28;20033;-70
2021/08/10 04:02:42;;;;;;;38.45;23.38;;;;;16.10;100641.00;;;;5049987;28;20368;-71
2021/08/10 04:05:11;;;;;;;41.97;21.95;;;;;16.20;100644.00;;;;5049820;28;20444;-70
2021/08/10 04:07:41;;;;;;;40.13;22.67;;;;;16.10;100640.00;;;;5049338;28;20036;-72
2021/08/10 04:10:09;;;;;;;39.78;22.73;;;;;16.10;100645.00;;;;5064563;28;20123;-70
2021/08/10 04:12:37;;;;;;;44.95;23.02;;;;;16.10;100626.00;;;;5070007;28;20085;-72
2021/08/10 04:15:07;;;;;;;44.13;24.05;;;;;16.10;100629.00;;;;5047958;28;20091;-73
2021/08/10 04:17:37;;;;;;;50.07;23.57;;;;;16.10;100611.00;;;;5049783;28;20033;-73
2021/08/10 04:20:05;;;;;;;44.95;23.70;;;;;16.10;100606.00;;;;5049196;28;20842;-72
2021/08/10 04:22:32;;;;;;;43.83;23.23;;;;;16.00;100612.00;;;;5049259;28;20033;-72
2021/08/10 04:24:59;;;;;;;58.17;24.85;;;;;16.00;100625.00;;;;5049169;28;20492;-70
2021/08/10 04:27:26;;;;;;;57.92;26.52;;;;;16.10;100635.00;;;;5049310;28;20025;-72
2021/08/10 04:29:52;;;;;;;50.10;26.02;;;;;16.00;100609.00;;;;5049431;28;20463;-70
2021/08/10 04:32:19;;;;;;;55.90;27.48;;;;;16.00;100608.00;;;;5047838;28;20040;-70
2021/08/10 04:34:45;;;;;;;48.80;26.02;;;;;16.00;100631.00;;;;5049127;28;20550;-72
2021/08/10 04:37:12;;;;;;;52.42;27.17;;;;;16.00;100608.00;;;;5048311;28;20108;-70
2021/08/10 04:39:39;;;;;;;38.58;25.23;;;;;16.00;100606.00;;;;5049085;28;20040;-71
2021/08/10 04:42:05;;;;;;;42.30;24.20;;;;;16.00;100590.00;;;;5048933;28;20105;-72
2021/08/10 04:44:32;;;;;;;56.83;25.58;;;;;16.00;100603.00;;;;5048926;28;20068;-69
2021/08/10 04:46:58;;;;;;;48.60;26.50;;;;;15.90;100597.00;;;;5048506;28;20044;-70
2021/08/10 04:49:25;;;;;;;46.83;26.25;;;;;15.90;100608.00;;;;5049049;28;20040;-70
2021/08/10 04:51:52;;;;;;;44.00;25.30;;;;;15.90;100606.00;;;;5047105;28;20033;-72
2021/08/10 04:54:18;;;;;;;74.53;27.52;;;;;15.80;100595.00;;;;5048751;28;20037;-72
2021/08/10 04:56:45;;;;;;;39.03;24.00;;;;;15.80;100610.00;;;;5048278;28;20025;-72
2021/08/10 04:59:12;;;;;;;54.30;24.55;;;;;15.80;100586.00;;;;5049189;28;20029;-72
2021/08/10 05:01:39;;;;;;;44.13;23.63;;;;;15.80;100603.00;;;;5048870;28;20091;-72
2021/08/10 05:04:06;;;;;;;38.28;23.38;;;;;15.80;100604.00;;;;5048708;28;20051;-69
2021/08/10 05:06:36;;;;;;;52.88;25.85;;;;;15.80;100602.00;;;;5048564;28;20025;-72
2021/08/10 05:09:06;;;;;;;51.80;26.83;;;;;15.80;100598.00;;;;5048328;28;20477;-72
2021/08/10 05:11:32;;;;;;;45.63;25.20;;;;;15.90;100608.00;;;;5048183;28;20479;-72
2021/08/10 05:13:59;;;;;;;40.72;23.98;;;;;15.80;100587.00;;;;5063399;28;20084;-70
2021/08/10 05:16:26;;;;;;;32.75;22.73;;;;;15.90;100590.00;;;;5088150;28;20034;-71
2021/08/10 05:18:53;;;;;;;45.17;24.10;;;;;15.80;100571.00;;;;5088648;28;20032;-72
2021/08/10 05:21:20;;;;;;;50.38;26.17;;;;;15.80;100581.00;;;;5088425;28;20032;-69
2021/08/10 05:23:47;;;;;;;46.67;25.80;;;;;15.80;100582.00;;;;5088687;28;20031;-71
2021/08/10 05:26:14;;;;;;;54.22;32.45;;;;;15.90;100602.00;;;;5088279;28;20032;-72
2021/08/10 05:28:40;;;;;;;51.92;29.98;;;;;15.90;100601.00;;;;5088055;28;20028;-72
2021/08/10 05:31:07;;;;;;;41.70;27.20;;;;;15.90;100596.00;;;;5087482;28;20067;-71
2021/08/10 05:33:34;;;;;;;53.53;27.20;;;;;15.90;100587.00;;;;5088272;28;20024;-70
2021/08/10 05:36:01;;;;;;;44.70;26.33;;;;;15.90;100604.00;;;;5069474;28;20036;-70
2021/08/10 05:38:27;;;;;;;54.33;26.75;;;;;15.90;100581.00;;;;5088364;28;20120;-70
2021/08/10 05:40:54;;;;;;;48.35;24.73;;;;;15.90;100583.00;;;;5087773;28;20028;-71
2021/08/10 05:43:21;;;;;;;51.72;26.10;;;;;15.90;100586.00;;;;5085964;28;20036;-72
2021/08/10 05:45:48;;;;;;;48.65;23.98;;;;;15.90;100586.00;;;;5085985;28;20502;-71
2021/08/10 05:48:14;;;;;;;41.88;24.55;;;;;15.90;100573.00;;;;5085190;28;20051;-71
2021/08/10 05:50:41;;;;;;;40.17;23.35;;;;;15.90;100575.00;;;;5086277;28;20178;-71
2021/08/10 05:53:08;;;;;;;47.08;25.10;;;;;15.90;100571.00;;;;5086458;28;20032;-70
2021/08/10 05:55:34;;;;;;;40.38;24.27;;;;;15.90;100564.00;;;;5085754;28;20031;-72
2021/08/10 05:58:01;;;;;;;40.35;23.52;;;;;15.80;100577.00;;;;5085718;28;20028;-71
2021/08/10 06:00:27;;;;;;;42.50;24.35;;;;;15.90;100575.00;;;;5087847;28;20028;-72
2021/08/10 06:02:55;;;;;;;40.35;23.80;;;;;15.90;100593.00;;;;5087513;28;20036;-72
2021/08/10 06:05:22;;;;;;;44.65;26.52;;;;;15.90;100594.00;;;;5087500;28;20024;-71
2021/08/10 06:07:48;;;;;;;54.53;35.30;;;;;16.20;100601.00;;;;5087845;28;20152;-72
2021/08/10 06:10:15;;;;;;;48.30;23.77;;;;;16.20;100590.00;;;;5055390;28;20074;-72
2021/08/10 06:12:41;;;;;;;37.10;23.13;;;;;16.00;100599.00;;;;5047230;28;20032;-71
2021/08/10 06:15:09;;;;;;;43.80;25.63;;;;;16.00;100622.00;;;;5046794;28;20428;-71
2021/08/10 06:17:35;;;;;;;50.75;27.17;;;;;16.10;100617.00;;;;5046884;28;20033;-72
2021/08/10 06:20:04;;;;;;;51.88;24.77;;;;;16.10;100611.00;;;;5046855;28;20037;-73
2021/08/10 06:22:30;;;;;;;50.13;27.73;;;;;16.10;100598.00;;;;5047288;28;20033;-73
2021/08/10 06:24:57;;;;;;;74.97;33.72;;;;;16.20;100604.00;;;;5047058;28;20037;-71
2021/08/10 06:27:24;;;;;;;63.78;32.75;;;;;16.20;100620.00;;;;5046697;28;20047;-72
2021/08/10 06:29:51;;;;;;;68.20;34.70;;;;;16.20;100604.00;;;;5046769;28;20086;-71
2021/08/10 06:32:18;;;;;;;53.05;26.25;;;;;16.20;100609.00;;;;5047409;28;20032;-72
2021/08/10 06:34:44;;;;;;;35.92;23.33;;;;;16.10;100620.00;;;;5046621;28;20036;-70
2021/08/10 06:37:11;;;;;;;46.55;27.83;;;;;16.10;100614.00;;;;5046552;28;20403;-71
2021/08/10 06:39:38;;;;;;;50.95;24.48;;;;;16.10;100610.00;;;;5045777;28;20040;-70
2021/08/10 06:42:05;;;;;;;33.50;21.25;;;;;16.10;100610.00;;;;5046671;28;20807;-71
2021/08/10 06:44:31;;;;;;;69.35;32.10;;;;;16.10;100605.00;;;;5046935;28;20025;-73
2021/08/10 06:46:58;;;;;;;93.85;45.70;;;;;16.10;100607.00;;;;5046578;28;20036;-72
2021/08/10 06:49:26;;;;;;;81.72;41.75;;;;;16.10;100599.00;;;;5046805;28;20510;-72
2021/08/10 06:51:53;;;;;;;101.80;44.42;;;;;16.10;100598.00;;;;5046606;28;20103;-72
2021/08/10 06:54:20;;;;;;;101.38;46.00;;;;;16.10;100612.00;;;;5046761;28;20451;-72
2021/08/10 06:56:47;;;;;;;111.68;48.78;;;;;16.10;100605.00;;;;5046722;28;20036;-70
2021/08/10 06:59:13;;;;;;;109.13;49.47;;;;;16.10;100598.00;;;;5046358;28;20032;-71
2021/08/10 07:01:40;;;;;;;104.20;48.25;;;;;16.10;100599.00;;;;5046563;28;20056;-72
2021/08/10 07:04:06;;;;;;;111.25;51.35;;;;;16.10;100625.00;;;;5046407;28;20068;-71
2021/08/10 07:06:33;;;;;;;123.85;50.10;;;;;16.10;100628.00;;;;5046648;28;20487;-72
2021/08/10 07:09:04;;;;;;;113.72;55.47;;;;;16.10;100608.00;;;;5045999;28;20112;-72
2021/08/10 07:11:31;;;;;;;98.60;52.22;;;;;16.10;100634.00;;;;5046268;28;20108;-72
2021/08/10 07:13:58;;;;;;;109.30;53.17;;;;;16.10;100627.00;;;;5044651;28;20132;-70
2021/08/10 07:16:25;;;;;;;130.27;52.17;;;;;16.10;100591.00;;;;5046331;28;20025;-71
2021/08/10 07:18:51;;;;;;;110.95;52.30;;;;;16.10;100614.00;;;;5046464;28;20029;-71
2021/08/10 07:21:18;;;;;;;105.70;56.25;;;;;16.10;100621.00;;;;5046438;28;20029;-71
2021/08/10 07:23:44;;;;;;;102.20;55.25;;;;;16.00;100616.00;;;;5045720;28;20509;-71
2021/08/10 07:26:13;;;;;;;122.82;62.22;;;;;16.00;100613.00;;;;5046284;28;20112;-69
2021/08/10 07:28:39;;;;;;;105.38;60.55;;;;;16.00;100613.00;;;;5046193;28;20029;-70
2021/08/10 07:31:06;;;;;;;119.32;62.33;;;;;15.90;100624.00;;;;5046189;28;20029;-70
2021/08/10 07:33:33;;;;;;;119.10;62.17;;;;;15.90;100609.00;;;;5046365;28;20029;-70
2021/08/10 07:36:00;;;;;;;118.97;63.30;;;;;15.80;100609.00;;;;5045910;28;20036;-70
2021/08/10 07:38:27;;;;;;;114.43;61.85;;;;;15.80;100610.00;;;;5045939;28;20032;-70
2021/08/10 07:40:54;;;;;;;103.75;58.05;;;;;15.80;100628.00;;;;5047046;28;20025;-70
2021/08/10 07:43:20;;;;;;;103.63;54.83;;;;;15.80;100623.00;;;;5045976;28;20104;-71
2021/08/10 07:45:47;;;;;;;95.75;51.83;;;;;15.70;100620.00;;;;5045887;28;20055;-71
2021/08/10 07:48:15;;;;;;;88.07;47.78;;;;;15.60;100614.00;;;;5046122;28;20121;-70
2021/08/10 07:50:42;;;;;;;82.10;45.72;;;;;15.60;100613.00;;;;5045630;28;20402;-71
2021/08/10 07:53:08;;;;;;;66.57;37.35;;;;;15.60;100623.00;;;;5046083;28;20032;-71
2021/08/10 07:55:36;;;;;;;59.83;34.20;;;;;15.50;100645.00;;;;5045967;28;20488;-70
2021/08/10 07:58:03;;;;;;;68.47;34.42;;;;;15.40;100634.00;;;;5046001;28;20035;-70
2021/08/10 08:00:30;;;;;;;48.97;27.20;;;;;15.40;100605.00;;;;5045848;28;20466;-71
2021/08/10 08:02:57;;;;;;;48.40;26.50;;;;;15.30;100609.00;;;;5045967;28;20033;-69
2021/08/10 08:05:23;;;;;;;40.75;25.48;;;;;15.20;100627.00;;;;5046161;28;20029;-69
2021/08/10 08:07:50;;;;;;;53.78;27.23;;;;;15.20;100621.00;;;;5045901;28;20037;-70
2021/08/10 08:10:16;;;;;;;46.80;25.33;;;;;15.20;100631.00;;;;5078672;28;20028;-69
2021/08/10 08:12:43;;;;;;;47.75;24.27;;;;;15.10;100641.00;;;;5088922;28;20085;-70
2021/08/10 08:15:10;;;;;;;43.10;23.20;;;;;15.10;100656.00;;;;5089289;28;20068;-70
2021/08/10 08:17:37;;;;;;;40.33;22.48;;;;;15.10;100645.00;;;;5089660;28;20032;-71
2021/08/10 08:20:05;;;;;;;39.40;21.10;;;;;15.00;100654.00;;;;5089663;28;20036;-70
2021/08/10 08:22:31;;;;;;;30.77;18.30;;;;;15.00;100656.00;;;;5089468;28;20568;-71
2021/08/10 08:24:58;;;;;;;28.52;16.95;;;;;15.00;100661.00;;;;5089490;28;20358;-70
2021/08/10 08:27:25;;;;;;;21.40;14.48;;;;;14.90;100669.00;;;;5089080;28;20039;-71
2021/08/10 08:29:52;;;;;;;26.30;14.65;;;;;14.90;100659.00;;;;5089749;28;20601;-69
2021/08/10 08:32:18;;;;;;;20.23;11.73;;;;;14.90;100647.00;;;;5089612;28;20028;-69
2021/08/10 08:34:45;;;;;;;17.30;10.48;;;;;14.80;100651.00;;;;5089661;28;20024;-69
2021/08/10 08:37:13;;;;;;;19.10;10.27;;;;;14.80;100675.00;;;;5089739;28;20479;-70
2021/08/10 08:39:39;;;;;;;19.60;10.60;;;;;14.80;100680.00;;;;5089109;28;20486;-71
2021/08/10 08:42:06;;;;;;;18.52;10.43;;;;;14.80;100697.00;;;;5070773;28;20028;-71
2021/08/10 08:44:35;;;;;;;17.58;10.63;;;;;14.80;100689.00;;;;5088773;28;20479;-71
2021/08/10 08:47:09;;;;;;;19.90;10.10;;;;;14.70;100701.00;;;;5088186;28;20024;-69
2021/08/10 08:49:38;;;;;;;13.65;9.02;;;;;14.80;100716.00;;;;5089015;28;20101;-71
2021/08/10 08:52:09;;;;;;;19.77;10.45;;;;;14.70;100693.00;;;;5089164;28;20034;-69
2021/08/10 08:54:38;;;;;;;18.40;10.55;;;;;14.70;100706.00;;;;5090074;28;20026;-70
2021/08/10 08:57:05;;;;;;;18.17;9.00;;;;;14.80;100698.00;;;;5088929;28;20073;-70
2021/08/10 08:59:32;;;;;;;15.15;8.57;;;;;14.70;100717.00;;;;5088373;28;20093;-70
2021/08/10 09:02:00;;;;;;;14.85;7.82;;;;;14.70;100699.00;;;;5089276;28;20032;-70
2021/08/10 09:04:27;;;;;;;19.60;8.00;;;;;14.70;100694.00;;;;5088434;28;20090;-70
2021/08/10 09:06:57;;;;;;;11.55;6.97;;;;;14.70;100681.00;;;;5088400;28;20028;-70
2021/08/10 09:09:26;;;;;;;8.38;4.22;;;;;14.60;100693.00;;;;5070296;28;20083;-70
2021/08/10 09:11:56;;;;;;;9.23;4.43;;;;;14.60;100718.00;;;;5047983;28;20112;-70
2021/08/10 09:14:24;;;;;;;12.80;4.38;;;;;14.50;100703.00;;;;5048408;28;20052;-70
2021/08/10 09:17:07;;;;;;;7.20;4.03;;;;;14.50;100701.00;;;;5047822;28;20036;-70
2021/08/10 09:19:45;;;;;;;5.25;3.10;;;;;14.50;100706.00;;;;5048510;28;20819;-70
2021/08/10 09:22:20;;;;;;;4.65;3.17;;;;;14.50;100712.00;;;;5047936;28;20388;-69
2021/08/10 09:25:02;;;;;;;5.13;3.00;;;;;14.40;100703.00;;;;5047801;28;20472;-72
2021/08/10 09:27:38;;;;;;;4.70;2.97;;;;;14.40;100717.00;;;;5047756;28;20025;-69
2021/08/10 09:30:08;;;;;;;3.17;2.58;;;;;14.40;100730.00;;;;5048105;28;20033;-71
2021/08/10 09:32:54;;;;;;;4.00;2.70;;;;;14.40;100708.00;;;;5047551;28;20033;-71
2021/08/10 09:35:24;;;;;;;6.95;2.65;;;;;14.40;100699.00;;;;5048274;28;20064;-71
2021/08/10 09:38:12;;;;;;;8.15;2.30;;;;;14.40;100721.00;;;;5047925;28;20029;-69
2021/08/10 09:40:53;;;;;;;4.72;3.00;;;;;14.40;100736.00;;;;5047615;28;20060;-71
2021/08/10 09:43:26;;;;;;;8.52;3.10;;;;;14.40;100734.00;;;;5046840;28;20029;-71
2021/08/10 09:46:16;;;;;;;2.90;2.60;;;;;14.40;100717.00;;;;5045324;28;20037;-71
2021/08/10 09:48:53;;;;;;;2.67;2.40;;;;;14.30;100730.00;;;;5046439;28;20032;-69
2021/08/10 09:51:23;;;;;;;2.85;2.38;;;;;14.30;100730.00;;;;5047634;28;20051;-70
2021/08/10 09:54:01;;;;;;;4.85;2.25;;;;;14.30;100753.00;;;;5047014;28;20032;-69
2021/08/10 09:56:59;;;;;;;2.10;1.77;;;;;14.40;100771.00;;;;5045177;28;20044;-71
2021/08/10 09:59:46;;;;;;;2.60;1.58;;;;;14.40;100794.00;;;;5046532;28;20033;-70
2021/08/10 10:02:18;;;;;;;4.43;1.40;;;;;14.40;100796.00;;;;5047140;28;20115;-70
2021/08/10 10:05:05;;;;;;;2.42;1.30;;;;;14.30;100821.00;;;;5046411;28;20032;-70
2021/08/10 10:07:32;;;;;;;4.15;1.30;;;;;14.30;100805.00;;;;5046583;28;20112;-71
2021/08/10 10:10:00;;;;;;;2.42;0.90;;;;;14.30;100835.00;;;;5074334;28;20028;-71
2021/08/10 10:12:28;;;;;;;2.83;1.00;;;;;14.20;100826.00;;;;5087283;28;20391;-71
2021/08/10 10:14:59;;;;;;;1.63;0.80;;;;;14.20;100816.00;;;;5086967;28;20052;-71
2021/08/10 10:17:30;;;;;;;0.75;0.75;;;;;14.10;100836.00;;;;5086926;28;20502;-69
2021/08/10 10:19:57;;;;;;;1.08;0.68;;;;;14.00;100849.00;;;;5087174;28;20070;-72
2021/08/10 10:22:28;;;;;;;1.25;0.60;;;;;14.00;100859.00;;;;5086398;28;20087;-73
2021/08/10 10:24:57;;;;;;;5.97;0.95;;;;;14.00;100860.00;;;;5086384;28;20027;-69
2021/08/10 10:27:24;;;;;;;1.77;0.80;;;;;14.00;100825.00;;;;5086954;28;20647;-69
2021/08/10 10:29:56;;;;;;;2.45;0.90;;;;;13.90;100826.00;;;;5086756;28;20431;-69
2021/08/10 10:32:25;;;;;;;3.25;0.95;;;;;13.90;100851.00;;;;5085270;28;20063;-71
2021/08/10 10:34:53;;;;;;;2.92;1.38;;;;;13.90;100852.00;;;;5086486;28;20073;-70
2021/08/10 10:37:28;;;;;;;1.23;1.13;;;;;13.90;100856.00;;;;5086991;28;20031;-70
2021/08/10 10:40:06;;;;;;;2.00;1.13;;;;;13.90;100862.00;;;;5086596;28;20507;-70
2021/08/10 10:42:34;;;;;;;2.00;1.17;;;;;13.80;100891.00;;;;5087261;28;20032;-70
2021/08/10 10:45:01;;;;;;;2.63;1.10;;;;;13.90;100889.00;;;;5087316;28;20066;-69
2021/08/10 10:47:34;;;;;;;2.35;1.20;;;;;14.00;100884.00;;;;5086725;28;20498;-70
2021/08/10 10:50:00;;;;;;;5.35;1.60;;;;;14.00;100881.00;;;;5087347;28;20031;-71
2021/08/10 10:52:32;;;;;;;1.48;1.38;;;;;14.00;100870.00;;;;5068400;28;20414;-70
2021/08/10 10:55:01;;;;;;;1.50;1.05;;;;;13.90;100882.00;;;;5068108;28;20024;-70
2021/08/10 10:57:31;;;;;;;1.52;1.10;;;;;13.90;100894.00;;;;5086899;28;20036;-71
2021/08/10 11:00:04;;;;;;;2.95;1.30;;;;;13.90;100918.00;;;;5086589;28;20040;-70
2021/08/10 11:02:36;;;;;;;0.80;0.80;;;;;13.90;100918.00;;;;5086429;28;20066;-70
2021/08/10 11:05:18;;;;;;;2.33;0.70;;;;;13.90;100946.00;;;;5087099;28;20387;-71
2021/08/10 11:07:46;;;;;;;1.00;0.90;;;;;13.90;100940.00;;;;5086517;28;20028;-70
2021/08/10 11:10:31;;;;;;;4.00;1.25;;;;;14.00;100938.00;;;;5055055;28;20025;-70
2021/08/10 11:12:58;;;;;;;1.70;1.25;;;;;14.00;100929.00;;;;5045881;28;20082;-69
2021/08/10 11:15:44;;;;;;;1.00;0.90;;;;;14.00;100954.00;;;;5046568;28;20061;-70
2021/08/10 11:18:11;;;;;;;0.77;0.60;;;;;13.90;100972.00;;;;5045808;28;20040;-71
2021/08/10 11:20:39;;;;;;;0.70;0.70;;;;;13.90;101001.00;;;;5046210;28;20033;-72
2021/08/10 11:23:26;;;;;;;1.60;0.90;;;;;13.90;101016.00;;;;5045588;28;20095;-68
2021/08/10 11:25:59;;;;;;;2.10;1.02;;;;;13.90;101004.00;;;;5046048;28;20044;-72
2021/08/10 11:28:28;;;;;;;2.97;1.20;;;;;14.00;100958.00;;;;5046492;28;20507;-70
2021/08/10 11:30:57;;;;;;;11.05;2.17;;;;;14.10;100945.00;;;;5046266;28;20095;-72
2021/08/10 11:33:40;;;;;;;11.30;1.60;;;;;14.10;100923.00;;;;5046501;28;20025;-72
2021/08/10 11:36:12;;;;;;;2.90;1.23;;;;;14.00;100935.00;;;;5045988;28;20039;-71
2021/08/10 11:38:45;;;;;;;4.80;1.08;;;;;14.00;100909.00;;;;5046702;28;20036;-69
2021/08/10 11:41:13;;;;;;;1.60;1.10;;;;;14.00;100885.00;;;;5046351;28;20033;-69
2021/08/10 11:43:48;;;;;;;1.85;1.35;;;;;14.00;100916.00;;;;5046109;28;20120;-70
2021/08/10 11:46:19;;;;;;;3.15;1.17;;;;;14.00;100910.00;;;;5046785;28;20025;-71
2021/08/10 11:48:51;;;;;;;4.60;1.33;;;;;14.10;100911.00;;;;5050264;28;20492;-71
2021/08/10 11:51:23;;;;;;;1.95;1.40;;;;;14.10;100928.00;;;;5050114;28;20103;-71
2021/08/10 11:53:54;;;;;;;4.15;1.98;;;;;14.10;100934.00;;;;5049955;28;20398;-70
2021/08/10 11:56:30;;;;;;;;;;;;;14.10;100940.00;;;;5050384;28;20037;-71
2021/08/10 11:59:02;;;;;;;1.25;1.00;;;;;14.10;100947.00;;;;5050242;28;19912;-71
2021/08/10 12:01:30;;;;;;;4.07;1.90;;;;;14.20;100952.00;;;;5049953;28;20835;-72
2021/08/10 12:04:09;;;;;;;3.20;1.48;;;;;14.20;100974.00;;;;5049827;28;20033;-71
2021/08/10 12:06:36;;;;;;;1.05;0.90;;;;;14.10;100981.00;;;;5049226;28;20021;-70